createdAt,value
2023-02-04T00:00:26.804Z,78.25
2023-02-04T00:02:54.313Z,79.85
2023-02-04T00:05:21.987Z,82.88
2023-02-04T00:07:49.400Z,81.15
2023-02-04T00:10:16.816Z,80.55
2023-02-04T00:12:44.082Z,78.13
2023-02-04T00:15:11.553Z,80.70
2023-02-04T00:17:39.559Z,83.20
2023-02-04T00:20:07.180Z,78.38
2023-02-04T00:22:34.500Z,82.38
2023-02-04T00:25:01.877Z,80.75
2023-02-04T00:27:29.461Z,79.03
2023-02-04T00:29:57.680Z,77.38
2023-02-04T00:32:25.290Z,76.50
2023-02-04T00:34:54.990Z,78.72
2023-02-04T00:37:22.496Z,79.10
2023-02-04T00:39:50.941Z,78.75
2023-02-04T00:42:18.247Z,78.13
2023-02-04T00:44:45.680Z,80.00
2023-02-04T00:47:13.035Z,81.20
2023-02-04T00:49:40.427Z,77.75
2023-02-04T00:52:07.818Z,78.15
2023-02-04T00:54:35.345Z,75.57
2023-02-04T00:57:04.098Z,76.70
2023-02-04T00:59:31.465Z,77.45
2023-02-04T01:01:58.876Z,76.78
2023-02-04T01:04:28.054Z,77.40
2023-02-04T01:06:55.448Z,77.15
2023-02-04T01:09:22.787Z,76.30
2023-02-04T01:11:52.299Z,78.38
2023-02-04T01:14:20.116Z,79.32
2023-02-04T01:16:47.725Z,80.10
2023-02-04T01:19:15.052Z,76.45
2023-02-04T01:21:42.597Z,78.60
2023-02-04T01:24:13.275Z,84.43
2023-02-04T01:27:04.075Z,77.85
2023-02-04T01:29:32.780Z,76.40
2023-02-04T01:32:00.174Z,74.18
2023-02-04T01:34:27.537Z,73.30
2023-02-04T01:36:54.801Z,73.95
2023-02-04T01:39:22.119Z,72.65
2023-02-04T01:41:49.550Z,75.10
2023-02-04T01:44:17.016Z,76.10
2023-02-04T01:46:44.435Z,73.45
2023-02-04T01:49:12.146Z,74.10
2023-02-04T01:51:39.856Z,72.70
2023-02-04T01:54:12.023Z,74.70
2023-02-04T01:56:40.874Z,71.78
2023-02-04T01:59:16.443Z,69.90
2023-02-04T02:01:49.114Z,74.82
2023-02-04T02:04:28.299Z,73.15
2023-02-04T02:06:58.944Z,73.90
2023-02-04T02:09:27.667Z,71.40
2023-02-04T02:11:55.083Z,74.63
2023-02-04T02:14:22.859Z,72.35
2023-02-04T02:16:51.220Z,73.43
2023-02-04T02:19:29.772Z,71.60
2023-02-04T02:22:05.372Z,72.20
2023-02-04T02:24:34.993Z,74.28
2023-02-04T02:27:07.321Z,70.47
2023-02-04T02:29:35.757Z,71.53
2023-02-04T02:32:03.402Z,70.70
2023-02-04T02:34:31.512Z,71.18
2023-02-04T02:37:00.516Z,73.03
2023-02-04T02:39:28.285Z,72.60
2023-02-04T02:41:57.156Z,72.85
2023-02-04T02:44:26.445Z,72.28
2023-02-04T02:46:54.928Z,70.68
2023-02-04T02:49:22.772Z,69.97
2023-02-04T02:51:50.148Z,69.13
2023-02-04T02:54:44.047Z,70.13
2023-02-04T02:57:20.574Z,66.97
2023-02-04T02:59:48.144Z,69.85
2023-02-04T03:02:22.044Z,66.95
2023-02-04T03:04:56.729Z,68.47
2023-02-04T03:07:27.492Z,69.75
2023-02-04T03:09:54.947Z,65.78
2023-02-04T03:12:22.268Z,69.18
2023-02-04T03:14:49.865Z,67.78
2023-02-04T03:17:17.580Z,68.07
2023-02-04T03:19:47.220Z,67.72
2023-02-04T03:22:15.027Z,67.03
2023-02-04T03:24:42.602Z,67.22
2023-02-04T03:27:10.543Z,68.25
2023-02-04T03:29:43.732Z,66.93
2023-02-04T03:32:11.665Z,73.70
2023-02-04T03:34:39.017Z,65.38
2023-02-04T03:37:06.392Z,67.88
2023-02-04T03:39:33.809Z,67.05
2023-02-04T03:42:01.116Z,65.75
2023-02-04T03:44:29.585Z,65.90
2023-02-04T03:46:57.047Z,67.10
2023-02-04T03:49:24.826Z,67.18
2023-02-04T03:51:52.119Z,65.38
2023-02-04T03:54:19.441Z,66.57
2023-02-04T03:56:46.984Z,69.57
2023-02-04T03:59:14.334Z,65.63
2023-02-04T04:01:41.811Z,67.22
2023-02-04T04:04:09.205Z,69.78
2023-02-04T04:06:36.493Z,65.88
2023-02-04T04:09:04.927Z,66.68
2023-02-04T04:11:32.252Z,63.35
2023-02-04T04:14:01.176Z,64.97
2023-02-04T04:16:29.042Z,60.72
2023-02-04T04:18:56.576Z,63.80
2023-02-04T04:21:27.093Z,63.80
2023-02-04T04:23:54.478Z,62.70
2023-02-04T04:26:21.736Z,63.33
2023-02-04T04:28:49.197Z,62.50
2023-02-04T04:31:16.589Z,62.22
2023-02-04T04:33:43.948Z,62.38
2023-02-04T04:36:12.112Z,61.65
2023-02-04T04:38:39.486Z,59.78
2023-02-04T04:41:06.836Z,61.30
2023-02-04T04:43:34.166Z,62.97
2023-02-04T04:46:01.491Z,61.78
2023-02-04T04:48:28.846Z,62.55
2023-02-04T04:50:56.261Z,64.25
2023-02-04T04:53:23.720Z,63.33
2023-02-04T04:55:51.036Z,60.90
2023-02-04T04:58:18.396Z,61.35
2023-02-04T05:00:45.750Z,60.47
2023-02-04T05:03:13.093Z,61.40
2023-02-04T05:05:41.410Z,62.97
2023-02-04T05:08:13.878Z,59.60
2023-02-04T05:10:41.740Z,57.13
2023-02-04T05:13:09.491Z,60.85
2023-02-04T05:15:36.908Z,59.80
2023-02-04T05:18:04.569Z,59.08
2023-02-04T05:20:32.328Z,56.88
2023-02-04T05:23:01.285Z,59.83
2023-02-04T05:25:29.068Z,59.97
2023-02-04T05:27:56.489Z,58.67
2023-02-04T05:30:23.889Z,60.45
2023-02-04T05:32:51.214Z,58.13
2023-02-04T05:35:18.653Z,56.92
2023-02-04T05:37:46.040Z,60.15
2023-02-04T05:40:14.025Z,59.33
2023-02-04T05:42:42.224Z,60.15
2023-02-04T05:45:15.027Z,58.15
2023-02-04T05:47:42.644Z,59.58
2023-02-04T05:50:10.921Z,57.55
2023-02-04T05:52:38.875Z,59.55
2023-02-04T05:55:07.068Z,56.90
2023-02-04T05:57:34.373Z,58.30
2023-02-04T06:00:01.739Z,57.90
2023-02-04T06:02:39.498Z,56.03
2023-02-04T06:05:07.116Z,58.63
2023-02-04T06:07:34.544Z,59.65
2023-02-04T06:10:01.924Z,59.92
2023-02-04T06:12:29.266Z,57.90
2023-02-04T06:14:56.737Z,60.50
2023-02-04T06:17:24.048Z,57.83
2023-02-04T06:19:51.413Z,60.15
2023-02-04T06:22:18.781Z,59.95
2023-02-04T06:24:47.465Z,58.70
2023-02-04T06:27:23.239Z,59.47
2023-02-04T06:29:53.174Z,57.30
2023-02-04T06:32:21.685Z,55.20
2023-02-04T06:34:49.619Z,52.15
2023-02-04T06:37:17.259Z,53.78
2023-02-04T06:39:44.658Z,53.58
2023-02-04T06:42:13.417Z,51.90
2023-02-04T06:44:40.861Z,53.55
2023-02-04T06:47:08.285Z,54.15
2023-02-04T06:49:35.650Z,56.53
2023-02-04T06:52:03.041Z,55.53
2023-02-04T06:54:30.336Z,55.40
2023-02-04T06:57:03.781Z,56.67
2023-02-04T06:59:33.105Z,56.17
2023-02-04T07:02:00.463Z,55.95
2023-02-04T07:04:27.823Z,57.40
2023-02-04T07:06:57.647Z,58.92
2023-02-04T07:09:25.045Z,57.95
2023-02-04T07:11:52.384Z,56.72
2023-02-04T07:14:20.136Z,60.67
2023-02-04T07:16:47.591Z,60.08
2023-02-04T07:19:15.165Z,59.08
2023-02-04T07:21:42.516Z,58.28
2023-02-04T07:24:09.876Z,59.22
2023-02-04T07:26:37.190Z,60.17
2023-02-04T07:29:05.815Z,61.35
2023-02-04T07:31:34.469Z,61.70
2023-02-04T07:34:01.896Z,61.38
2023-02-04T07:36:29.285Z,61.67
2023-02-04T07:38:56.553Z,63.42
2023-02-04T07:41:24.000Z,64.20
2023-02-04T07:43:51.240Z,61.83
2023-02-04T07:46:18.591Z,62.75
2023-02-04T07:48:45.952Z,62.65
2023-02-04T07:51:13.367Z,63.67
2023-02-04T07:53:40.728Z,62.05
2023-02-04T07:56:08.097Z,64.00
2023-02-04T07:58:35.437Z,62.40
2023-02-04T08:01:02.993Z,69.28
2023-02-04T08:03:30.264Z,69.60
2023-02-04T08:05:57.679Z,69.60
2023-02-04T08:08:25.053Z,67.28
2023-02-04T08:10:52.441Z,69.75
2023-02-04T08:13:19.785Z,71.35
2023-02-04T08:15:47.222Z,66.95
2023-02-04T08:18:14.586Z,70.00
2023-02-04T08:20:41.929Z,70.57
2023-02-04T08:23:10.392Z,73.00
2023-02-04T08:25:37.742Z,69.68
2023-02-04T08:28:05.149Z,70.15
2023-02-04T08:30:32.936Z,66.30
2023-02-04T08:33:00.446Z,67.45
2023-02-04T08:35:27.852Z,67.40
2023-02-04T08:37:55.146Z,67.60
2023-02-04T08:40:22.637Z,68.57
2023-02-04T08:42:49.988Z,67.18
2023-02-04T08:45:18.041Z,71.30
2023-02-04T08:47:45.337Z,72.38
2023-02-04T08:50:13.097Z,72.60
2023-02-04T08:52:40.384Z,72.40
2023-02-04T08:55:08.630Z,72.60
2023-02-04T08:57:36.004Z,73.40
2023-02-04T09:00:04.287Z,72.20
2023-02-04T09:02:31.693Z,71.32
2023-02-04T09:04:59.110Z,73.20
2023-02-04T09:07:26.386Z,74.00
2023-02-04T09:09:53.720Z,74.03
2023-02-04T09:12:20.977Z,73.13
2023-02-04T09:14:48.407Z,75.05
2023-02-04T09:17:15.706Z,71.22
2023-02-04T09:19:43.055Z,73.47
2023-02-04T09:22:11.599Z,73.63
2023-02-04T09:24:39.186Z,73.93
2023-02-04T09:27:06.627Z,76.78
2023-02-04T09:29:34.023Z,75.88
2023-02-04T09:32:01.371Z,78.00
2023-02-04T09:34:28.784Z,78.93
2023-02-04T09:36:56.099Z,79.93
2023-02-04T09:39:23.547Z,82.45
2023-02-04T09:41:53.897Z,82.38
2023-02-04T09:44:24.734Z,83.85
2023-02-04T09:46:55.699Z,84.43
2023-02-04T09:49:23.836Z,83.60
2023-02-04T09:51:51.787Z,83.82
2023-02-04T09:54:22.750Z,87.15
2023-02-04T09:56:53.162Z,90.88
2023-02-04T09:59:27.423Z,92.75
2023-02-04T10:02:01.359Z,96.45
2023-02-04T10:04:29.182Z,93.90
2023-02-04T10:07:00.150Z,95.65
2023-02-04T10:09:27.657Z,98.55
2023-02-04T10:11:55.072Z,100.53
2023-02-04T10:14:23.806Z,95.43
2023-02-04T10:16:59.394Z,92.22
2023-02-04T10:19:29.358Z,95.63
2023-02-04T10:21:57.156Z,95.32
2023-02-04T10:24:30.633Z,95.35
2023-02-04T10:27:12.233Z,96.60
2023-02-04T10:29:42.244Z,96.07
2023-02-04T10:32:26.937Z,98.82
2023-02-04T10:34:59.380Z,97.30
2023-02-04T10:37:26.784Z,94.97
2023-02-04T10:39:54.201Z,98.30
2023-02-04T10:42:24.556Z,96.75
2023-02-04T10:44:52.802Z,96.57
2023-02-04T10:47:22.511Z,94.72
2023-02-04T10:49:56.108Z,97.53
2023-02-04T10:52:33.870Z,94.72
2023-02-04T10:55:03.907Z,97.70
2023-02-04T10:57:37.410Z,97.57
2023-02-04T11:00:14.560Z,97.07
2023-02-04T11:03:06.582Z,97.40
2023-02-04T11:05:36.532Z,95.28
2023-02-04T11:08:21.717Z,94.85
2023-02-04T11:10:56.890Z,93.72
2023-02-04T11:13:42.648Z,93.35
2023-02-04T11:16:19.080Z,94.72
2023-02-04T11:18:52.449Z,94.32
2023-02-04T11:21:34.792Z,94.43
2023-02-04T11:24:24.122Z,97.28
2023-02-04T11:26:54.118Z,93.72
2023-02-04T11:29:35.936Z,96.72
2023-02-04T11:32:29.618Z,102.22
2023-02-04T11:35:28.606Z,94.70
2023-02-04T11:37:56.939Z,94.30
2023-02-04T11:40:29.312Z,97.45
2023-02-04T11:43:12.756Z,102.57
2023-02-04T11:45:41.184Z,95.75
2023-02-04T11:48:21.453Z,93.50
2023-02-04T11:50:56.876Z,91.35
2023-02-04T11:53:28.615Z,93.20
2023-02-04T11:55:55.901Z,93.30
2023-02-04T11:58:26.057Z,92.38
2023-02-04T12:00:53.510Z,91.00
2023-02-04T12:03:26.730Z,89.05
2023-02-04T12:05:57.233Z,93.55
2023-02-04T12:08:24.716Z,92.25
2023-02-04T12:11:00.311Z,92.25
2023-02-04T12:13:30.383Z,94.95
2023-02-04T12:16:04.159Z,92.45
2023-02-04T12:18:33.900Z,91.57
2023-02-04T12:21:04.415Z,90.18
2023-02-04T12:23:31.824Z,90.60
2023-02-04T12:25:59.805Z,85.25
2023-02-04T12:28:30.790Z,84.63
2023-02-04T12:30:58.164Z,86.78
2023-02-04T12:33:26.024Z,87.50
2023-02-04T12:35:53.566Z,90.35
2023-02-04T12:38:21.907Z,87.88
2023-02-04T12:40:52.672Z,87.60
2023-02-04T12:43:20.000Z,86.07
2023-02-04T12:45:49.779Z,88.05
2023-02-04T12:48:17.433Z,90.72
2023-02-04T12:50:45.880Z,88.22
2023-02-04T12:53:13.182Z,88.00
2023-02-04T12:55:40.999Z,87.10
2023-02-04T12:58:08.428Z,85.38
2023-02-04T13:00:35.905Z,87.40
2023-02-04T13:03:03.568Z,85.93
2023-02-04T13:05:31.610Z,85.60
2023-02-04T13:08:02.403Z,84.70
2023-02-04T13:10:29.704Z,84.90
2023-02-04T13:12:57.108Z,85.65
2023-02-04T13:15:24.376Z,84.95
2023-02-04T13:17:51.769Z,81.13
2023-02-04T13:20:21.694Z,83.00
2023-02-04T13:22:49.015Z,81.10
2023-02-04T13:25:16.450Z,79.50
2023-02-04T13:27:43.824Z,77.80
2023-02-04T13:30:13.655Z,76.78
2023-02-04T13:32:41.921Z,76.13
2023-02-04T13:35:09.492Z,77.00
2023-02-04T13:37:38.207Z,76.32
2023-02-04T13:40:07.962Z,76.68
2023-02-04T13:42:35.713Z,76.50
2023-02-04T13:45:06.558Z,74.22
2023-02-04T13:47:33.953Z,72.57
2023-02-04T13:50:01.274Z,73.50
2023-02-04T13:52:28.645Z,71.82
2023-02-04T13:54:56.653Z,75.20
2023-02-04T13:57:26.296Z,75.55
2023-02-04T13:59:54.574Z,74.38
2023-02-04T14:02:23.979Z,75.22
2023-02-04T14:04:51.349Z,73.93
2023-02-04T14:07:18.930Z,80.43
2023-02-04T14:09:48.284Z,76.75
2023-02-04T14:12:15.777Z,75.75
2023-02-04T14:14:43.092Z,76.65
2023-02-04T14:17:10.384Z,72.22
2023-02-04T14:19:37.718Z,75.78
2023-02-04T14:22:05.109Z,73.93
2023-02-04T14:27:17.227Z,75.07
2023-02-04T14:29:44.557Z,76.78
2023-02-04T14:32:11.918Z,72.75
2023-02-04T14:34:39.178Z,68.82
2023-02-04T14:37:06.553Z,63.80
2023-02-04T14:39:33.861Z,61.85
2023-02-04T14:42:04.436Z,58.45
2023-02-04T14:44:35.351Z,63.97
2023-02-04T14:47:02.767Z,65.47
2023-02-04T14:49:30.385Z,67.70
2023-02-04T14:51:57.778Z,69.97
2023-02-04T14:54:25.101Z,68.53
2023-02-04T14:56:52.631Z,68.80
2023-02-04T14:59:19.971Z,70.68
2023-02-04T15:01:47.321Z,70.10
2023-02-04T15:04:14.685Z,72.72
2023-02-04T15:06:42.068Z,77.30
2023-02-04T15:09:09.571Z,79.25
2023-02-04T15:11:37.153Z,80.88
2023-02-04T15:14:04.959Z,78.97
2023-02-04T15:16:32.439Z,79.93
2023-02-04T15:19:05.664Z,88.40
2023-02-04T15:21:33.108Z,91.20
2023-02-04T15:24:00.572Z,93.93
2023-02-04T15:26:31.016Z,93.93
2023-02-04T15:28:58.479Z,95.70
2023-02-04T15:31:27.264Z,102.78
2023-02-04T15:33:54.676Z,101.20
2023-02-04T15:36:22.242Z,101.53
2023-02-04T15:38:49.620Z,102.47
2023-02-04T15:41:16.985Z,106.75
2023-02-04T15:43:44.553Z,107.55
2023-02-04T15:46:12.003Z,105.78
2023-02-04T15:48:39.392Z,105.18
2023-02-04T15:51:06.717Z,100.80
2023-02-04T15:53:35.105Z,102.60
2023-02-04T15:56:02.405Z,98.90
2023-02-04T15:58:29.709Z,98.70
2023-02-04T16:00:57.482Z,98.05
2023-02-04T16:03:24.928Z,97.22
2023-02-04T16:05:52.250Z,96.07
2023-02-04T16:08:19.561Z,95.60
2023-02-04T16:10:47.161Z,95.35
2023-02-04T16:13:14.659Z,94.18
2023-02-04T16:15:41.989Z,95.50
2023-02-04T16:18:09.344Z,92.57
2023-02-04T16:20:37.556Z,88.88
2023-02-04T16:23:07.165Z,89.07
2023-02-04T16:25:34.944Z,88.90
2023-02-04T16:28:03.818Z,83.18
2023-02-04T16:30:31.174Z,83.40
2023-02-04T16:32:58.572Z,83.43
2023-02-04T16:35:27.119Z,83.03
2023-02-04T16:37:54.453Z,82.43
2023-02-04T16:40:21.789Z,83.28
2023-02-04T16:42:49.221Z,84.10
2023-02-04T16:45:19.654Z,85.20
2023-02-04T16:47:47.032Z,82.97
2023-02-04T16:50:14.439Z,86.05
2023-02-04T16:52:41.856Z,87.28
2023-02-04T16:55:09.241Z,86.00
2023-02-04T16:57:36.652Z,83.32
2023-02-04T17:00:04.661Z,83.93
2023-02-04T17:02:37.082Z,84.28
2023-02-04T17:05:05.770Z,83.28
2023-02-04T17:07:33.401Z,81.70
2023-02-04T17:10:00.891Z,82.85
2023-02-04T17:12:28.345Z,76.28
2023-02-04T17:14:55.675Z,71.50
2023-02-04T17:17:23.045Z,71.78
2023-02-04T17:19:50.630Z,66.65
2023-02-04T17:22:18.063Z,64.45
2023-02-04T17:24:45.411Z,65.07
2023-02-04T17:27:13.027Z,65.70
2023-02-04T17:29:40.325Z,61.75
2023-02-04T17:32:08.678Z,58.83
2023-02-04T17:34:36.048Z,58.38
2023-02-04T17:37:03.394Z,58.92
2023-02-04T17:39:31.124Z,53.30
2023-02-04T17:41:58.792Z,52.33
2023-02-04T17:44:27.700Z,50.47
2023-02-04T17:46:55.234Z,50.55
2023-02-04T17:49:22.706Z,49.85
2023-02-04T17:51:50.925Z,45.55
2023-02-04T17:54:18.269Z,46.00
2023-02-04T17:56:45.541Z,44.25
2023-02-04T17:59:13.115Z,44.90
2023-02-04T18:01:41.570Z,42.80
2023-02-04T18:04:12.977Z,41.20
2023-02-04T18:06:40.424Z,41.17
2023-02-04T18:09:26.998Z,37.70
2023-02-04T18:11:54.309Z,35.63
2023-02-04T18:14:27.847Z,34.75
2023-02-04T18:16:58.482Z,34.05
2023-02-04T18:19:29.211Z,32.28
2023-02-04T18:21:58.608Z,33.72
2023-02-04T18:24:32.492Z,31.92
2023-02-04T18:27:02.192Z,30.73
2023-02-04T18:29:37.383Z,31.75
2023-02-04T18:32:20.434Z,33.75
2023-02-04T18:34:52.986Z,34.00
2023-02-04T18:37:42.563Z,31.23
2023-02-04T18:40:09.907Z,32.35
2023-02-04T18:42:39.607Z,31.23
2023-02-04T18:45:16.359Z,32.10
2023-02-04T18:47:44.021Z,31.48
2023-02-04T18:50:33.162Z,31.90
2023-02-04T18:53:19.491Z,30.77
2023-02-04T18:55:49.716Z,30.75
2023-02-04T18:58:17.223Z,32.85
2023-02-04T19:01:17.028Z,30.40
2023-02-04T19:04:03.384Z,28.33
2023-02-04T19:06:40.024Z,28.88
2023-02-04T19:09:10.212Z,28.58
2023-02-04T19:11:38.900Z,29.75
2023-02-04T19:14:13.199Z,26.25
2023-02-04T19:16:41.460Z,27.17
2023-02-04T19:19:35.732Z,26.13
2023-02-04T19:22:35.312Z,24.20
2023-02-04T19:25:22.542Z,24.20
2023-02-04T19:27:58.191Z,22.52
2023-02-04T19:30:28.322Z,23.70
2023-02-04T19:33:10.100Z,22.40
2023-02-04T19:35:43.239Z,22.00
2023-02-04T19:38:45.043Z,20.60
2023-02-04T19:41:28.235Z,22.08
2023-02-04T19:44:14.166Z,20.80
2023-02-04T19:46:42.436Z,20.90
2023-02-04T19:49:21.937Z,20.75
2023-02-04T19:51:53.794Z,21.08
2023-02-04T19:56:55.153Z,20.52
2023-02-04T19:59:33.492Z,22.55
2023-02-04T20:02:06.733Z,21.60
2023-02-04T20:04:42.546Z,22.60
2023-02-04T20:07:19.843Z,22.20
2023-02-04T20:09:47.624Z,22.08
2023-02-04T20:12:16.599Z,23.08
2023-02-04T20:14:56.007Z,24.45
2023-02-04T20:17:46.524Z,23.70
2023-02-04T20:20:26.356Z,22.40
2023-02-04T20:23:21.548Z,22.42
2023-02-04T20:25:50.437Z,23.25
2023-02-04T20:28:23.762Z,23.70
2023-02-04T20:30:52.152Z,23.58
2023-02-04T20:33:35.387Z,24.35
2023-02-04T20:36:41.088Z,24.75
2023-02-04T20:39:26.829Z,24.45
2023-02-04T20:41:54.631Z,24.48
2023-02-04T20:44:35.757Z,26.83
2023-02-04T20:47:24.856Z,25.98
2023-02-04T20:49:58.718Z,25.75
2023-02-04T20:52:41.223Z,25.55
2023-02-04T20:56:03.786Z,24.95
2023-02-04T21:01:03.740Z,20.88
2023-02-04T21:03:37.724Z,22.20
2023-02-04T21:06:21.237Z,22.02
2023-02-04T21:08:51.165Z,21.58
2023-02-04T21:11:19.030Z,22.75
2023-02-04T21:13:47.609Z,24.80
2023-02-04T21:16:15.895Z,26.00
2023-02-04T21:18:43.311Z,26.38
2023-02-04T21:21:10.689Z,25.92
2023-02-04T21:23:38.250Z,26.60
2023-02-04T21:26:06.394Z,24.20
2023-02-04T21:28:34.052Z,23.10
2023-02-04T21:31:01.758Z,22.42
2023-02-04T21:33:29.134Z,23.70
2023-02-04T21:35:56.451Z,22.08
2023-02-04T21:38:23.858Z,21.10
2023-02-04T21:40:51.354Z,21.80
2023-02-04T21:43:18.780Z,20.60
2023-02-04T21:45:46.110Z,22.27
2023-02-04T21:48:14.750Z,21.70
2023-02-04T21:50:42.203Z,21.80
2023-02-04T21:53:09.855Z,20.33
2023-02-04T21:55:37.980Z,19.52
2023-02-04T21:58:05.862Z,18.80
2023-02-04T22:00:33.802Z,17.48
2023-02-04T22:03:01.489Z,13.25
2023-02-04T22:05:32.425Z,11.30
2023-02-04T22:08:00.065Z,9.00
2023-02-04T22:10:27.391Z,8.95
2023-02-04T22:12:54.759Z,8.68
2023-02-04T22:15:22.637Z,10.80
2023-02-04T22:17:53.676Z,9.63
2023-02-04T22:20:23.731Z,10.53
2023-02-04T22:22:55.174Z,9.80
2023-02-04T22:25:22.714Z,9.70
2023-02-04T22:27:50.347Z,9.48
2023-02-04T22:30:18.228Z,9.18
2023-02-04T22:32:45.736Z,8.57
2023-02-04T22:35:14.166Z,8.27
2023-02-04T22:37:42.354Z,8.70
2023-02-04T22:40:13.157Z,7.73
2023-02-04T22:42:40.878Z,6.50
2023-02-04T22:45:11.644Z,6.50
2023-02-04T22:47:39.148Z,6.70
2023-02-04T22:50:06.858Z,6.15
2023-02-04T22:52:34.305Z,5.75
2023-02-04T22:55:01.675Z,5.93
2023-02-04T22:57:29.083Z,5.60
2023-02-04T22:59:56.375Z,5.95
2023-02-04T23:02:23.689Z,5.55
2023-02-04T23:04:51.252Z,6.30
2023-02-04T23:07:19.071Z,6.30
2023-02-04T23:09:47.671Z,5.95
2023-02-04T23:12:15.086Z,6.82
2023-02-04T23:14:44.916Z,6.15
2023-02-04T23:17:13.434Z,6.78
2023-02-04T23:19:40.979Z,6.43
2023-02-04T23:22:10.375Z,6.38
2023-02-04T23:24:38.712Z,7.40
2023-02-04T23:27:06.771Z,7.72
2023-02-04T23:29:35.364Z,8.98
2023-02-04T23:32:03.541Z,10.15
2023-02-04T23:34:31.273Z,11.70
2023-02-04T23:36:58.620Z,11.32
2023-02-04T23:39:26.173Z,11.98
2023-02-04T23:41:53.658Z,12.52
2023-02-04T23:44:21.129Z,11.27
2023-02-04T23:46:48.580Z,11.63
2023-02-04T23:49:16.017Z,11.65
2023-02-04T23:51:43.516Z,12.02
2023-02-04T23:54:10.930Z,11.48
2023-02-04T23:56:38.307Z,10.85
2023-02-04T23:59:06.006Z,10.75
